createdAt,value
2022-12-16T00:01:26.429Z,-1.94
2022-12-16T00:03:55.626Z,-2.29
2022-12-16T00:06:25.277Z,-2.21
2022-12-16T00:08:53.706Z,-2.17
2022-12-16T00:11:22.603Z,-2.29
2022-12-16T00:13:51.876Z,-2.19
2022-12-16T00:16:21.821Z,-2.21
2022-12-16T00:18:51.762Z,-2.24
2022-12-16T00:21:21.837Z,-2.27
2022-12-16T00:23:49.811Z,-2.22
2022-12-16T00:26:17.429Z,-2.23
2022-12-16T00:28:45.085Z,-2.19
2022-12-16T00:31:14.249Z,-2.14
2022-12-16T00:33:42.124Z,-2.18
2022-12-16T00:36:10.892Z,-2.18
2022-12-16T00:38:39.326Z,-2.12
2022-12-16T00:41:07.143Z,-2.16
2022-12-16T00:43:36.218Z,-2.12
2022-12-16T00:46:04.098Z,-2.03
2022-12-16T00:48:33.240Z,-2.12
2022-12-16T00:51:00.900Z,-2.04
2022-12-16T00:53:28.592Z,-2.17
2022-12-16T00:56:03.044Z,-2.11
2022-12-16T00:58:30.823Z,-2.06
2022-12-16T01:00:58.573Z,-2.08
2022-12-16T01:03:26.453Z,-1.97
2022-12-16T01:05:55.570Z,-2.00
2022-12-16T01:08:23.351Z,-1.96
2022-12-16T01:10:51.869Z,-2.07
2022-12-16T01:13:20.326Z,-1.99
2022-12-16T01:15:48.287Z,-2.00
2022-12-16T01:18:16.459Z,-2.04
2022-12-16T01:20:44.104Z,-2.10
2022-12-16T01:23:13.101Z,-2.06
2022-12-16T01:25:40.766Z,-2.08
2022-12-16T01:28:08.472Z,-2.04
2022-12-16T01:30:36.736Z,-2.03
2022-12-16T01:33:04.486Z,-2.08
2022-12-16T01:38:21.420Z,-2.04
2022-12-16T01:40:49.029Z,-2.03
2022-12-16T01:43:17.918Z,-1.93
2022-12-16T01:45:45.700Z,-1.92
2022-12-16T01:48:22.009Z,-1.99
2022-12-16T01:50:51.593Z,-1.87
2022-12-16T01:53:22.700Z,-2.04
2022-12-16T01:55:53.594Z,-2.03
2022-12-16T01:58:24.977Z,-2.00
2022-12-16T02:00:52.964Z,-2.23
2022-12-16T02:03:23.555Z,-2.07
2022-12-16T02:05:51.878Z,-2.14
2022-12-16T02:08:22.709Z,-2.13
2022-12-16T02:11:05.368Z,-2.23
2022-12-16T02:13:42.109Z,-2.09
2022-12-16T02:16:19.722Z,-2.09
2022-12-16T02:18:56.789Z,-2.17
2022-12-16T02:21:48.741Z,-2.13
2022-12-16T02:25:00.985Z,-2.19
2022-12-16T02:27:47.114Z,-2.19
2022-12-16T02:30:53.038Z,-2.06
2022-12-16T02:33:49.413Z,-2.15
2022-12-16T02:36:26.083Z,-2.14
2022-12-16T02:39:00.306Z,-2.26
2022-12-16T02:41:38.927Z,-2.15
2022-12-16T02:44:09.537Z,-2.26
2022-12-16T02:46:43.222Z,-2.17
2022-12-16T02:49:45.930Z,-2.15
2022-12-16T02:52:14.693Z,-2.07
2022-12-16T02:54:44.103Z,-2.16
2022-12-16T02:57:27.667Z,-2.06
2022-12-16T03:00:01.580Z,-2.06
2022-12-16T03:02:38.084Z,-2.03
2022-12-16T03:05:11.667Z,-2.10
2022-12-16T03:07:42.237Z,-2.18
2022-12-16T03:10:15.568Z,-2.18
2022-12-16T03:12:45.891Z,-2.25
2022-12-16T03:15:17.281Z,-2.03
2022-12-16T03:17:49.855Z,-2.23
2022-12-16T03:20:23.961Z,-2.09
2022-12-16T03:22:56.033Z,-2.15
2022-12-16T03:25:26.065Z,-2.27
2022-12-16T03:28:00.244Z,-2.09
2022-12-16T03:30:33.157Z,-2.24
2022-12-16T03:33:07.178Z,-2.45
2022-12-16T03:35:39.109Z,-2.20
2022-12-16T03:38:11.737Z,-2.24
2022-12-16T03:40:42.159Z,-2.49
2022-12-16T03:43:12.300Z,-2.46
2022-12-16T03:45:44.122Z,-2.43
2022-12-16T03:48:17.497Z,-2.46
2022-12-16T03:50:45.547Z,-2.67
2022-12-16T03:53:13.306Z,-2.38
2022-12-16T03:55:42.268Z,-2.60
2022-12-16T03:58:10.075Z,-2.59
2022-12-16T04:00:38.401Z,-2.58
2022-12-16T04:03:06.780Z,-3.08
2022-12-16T04:05:36.356Z,-2.94
2022-12-16T04:08:04.126Z,-3.15
2022-12-16T04:10:49.824Z,-3.16
2022-12-16T04:13:35.588Z,-3.34
2022-12-16T04:16:21.167Z,-3.42
2022-12-16T04:19:07.060Z,-3.46
2022-12-16T04:21:53.401Z,-3.52
2022-12-16T04:24:31.725Z,-3.86
2022-12-16T04:27:22.161Z,-4.02
2022-12-16T04:30:07.516Z,-4.21
2022-12-16T04:32:49.179Z,-4.34
2022-12-16T04:35:30.992Z,-4.47
2022-12-16T04:38:16.587Z,-4.60
2022-12-16T04:41:01.723Z,-4.66
2022-12-16T04:43:47.278Z,-4.58
2022-12-16T04:46:37.851Z,-4.58
2022-12-16T04:49:23.017Z,-4.49
2022-12-16T04:52:08.466Z,-4.83
2022-12-16T04:54:55.085Z,-5.04
2022-12-16T04:57:40.402Z,-5.04
2022-12-16T05:00:26.645Z,-4.84
2022-12-16T05:03:11.991Z,-4.78
2022-12-16T05:05:57.290Z,-4.90
2022-12-16T05:08:42.285Z,-5.19
2022-12-16T05:11:28.660Z,-5.09
2022-12-16T05:14:14.109Z,-5.22
2022-12-16T05:16:59.255Z,-5.25
2022-12-16T05:19:44.579Z,-5.26
2022-12-16T05:22:31.081Z,-5.22
2022-12-16T05:25:12.768Z,-5.40
2022-12-16T05:27:59.667Z,-5.47
2022-12-16T05:30:44.799Z,-5.67
2022-12-16T05:33:41.546Z,-5.88
2022-12-16T05:36:27.882Z,-5.84
2022-12-16T05:39:13.227Z,-5.88
2022-12-16T05:41:59.153Z,-6.01
2022-12-16T05:44:46.405Z,-6.08
2022-12-16T05:47:31.662Z,-6.24
2022-12-16T05:50:17.070Z,-6.32
2022-12-16T05:53:07.748Z,-6.20
2022-12-16T05:55:53.004Z,-6.05
2022-12-16T05:58:38.206Z,-6.24
2022-12-16T06:01:25.680Z,-6.36
2022-12-16T06:04:17.105Z,-6.45
2022-12-16T06:07:03.134Z,-6.26
2022-12-16T06:09:53.170Z,-6.44
2022-12-16T06:12:41.712Z,-6.48
2022-12-16T06:15:27.721Z,-6.46
2022-12-16T06:18:14.318Z,-6.50
2022-12-16T06:20:59.674Z,-6.59
2022-12-16T06:23:44.729Z,-6.54
2022-12-16T06:26:30.325Z,-6.48
2022-12-16T06:29:15.742Z,-6.60
2022-12-16T06:32:16.111Z,-6.63
2022-12-16T06:35:02.769Z,-6.66
2022-12-16T06:37:48.178Z,-6.70
2022-12-16T06:40:33.613Z,-6.70
2022-12-16T06:43:19.124Z,-6.70
2022-12-16T06:46:04.268Z,-6.78
2022-12-16T06:48:49.969Z,-6.79
2022-12-16T06:51:36.365Z,-6.84
2022-12-16T06:54:21.618Z,-6.79
2022-12-16T06:57:06.887Z,-6.80
2022-12-16T06:59:52.297Z,-6.92
2022-12-16T07:02:37.488Z,-6.81
2022-12-16T07:05:23.390Z,-6.75
2022-12-16T07:08:10.832Z,-6.87
2022-12-16T07:11:03.421Z,-6.92
2022-12-16T07:14:02.693Z,-6.88
2022-12-16T07:16:48.045Z,-6.92
2022-12-16T07:19:35.001Z,-6.97
2022-12-16T07:22:20.585Z,-6.99
2022-12-16T07:25:06.916Z,-7.06
2022-12-16T07:27:51.928Z,-7.16
2022-12-16T07:30:37.127Z,-7.08
2022-12-16T07:33:22.205Z,-7.18
2022-12-16T07:36:07.565Z,-7.24
2022-12-16T07:38:53.050Z,-7.25
2022-12-16T07:41:39.666Z,-7.08
2022-12-16T07:44:24.868Z,-7.16
2022-12-16T07:47:10.091Z,-7.22
2022-12-16T07:49:55.697Z,-7.22
2022-12-16T07:53:11.913Z,-7.26
2022-12-16T07:55:59.200Z,-7.32
2022-12-16T07:58:46.465Z,-7.31
2022-12-16T08:01:32.109Z,-7.34
2022-12-16T08:04:18.642Z,-7.39
2022-12-16T08:07:04.123Z,-7.36
2022-12-16T08:09:49.696Z,-7.48
2022-12-16T08:12:35.107Z,-7.39
2022-12-16T08:15:21.843Z,-7.31
2022-12-16T08:18:07.991Z,-7.34
2022-12-16T08:20:54.025Z,-7.46
2022-12-16T08:23:40.866Z,-7.36
2022-12-16T08:26:26.245Z,-7.33
2022-12-16T08:29:35.045Z,-7.25
2022-12-16T08:32:18.230Z,-7.13
2022-12-16T08:35:03.634Z,-7.03
2022-12-16T08:37:54.329Z,-6.68
2022-12-16T08:40:40.839Z,-6.78
2022-12-16T08:43:25.909Z,-6.68
2022-12-16T08:46:12.781Z,-6.62
2022-12-16T08:48:59.539Z,-6.43
2022-12-16T08:51:45.621Z,-6.36
2022-12-16T08:54:30.757Z,-6.25
2022-12-16T08:57:16.152Z,-5.91
2022-12-16T09:00:01.454Z,-6.12
2022-12-16T09:02:46.999Z,-6.23
2022-12-16T09:05:33.539Z,-6.24
2022-12-16T09:08:19.333Z,-6.04
2022-12-16T09:11:04.736Z,-5.57
2022-12-16T09:13:49.952Z,-5.68
2022-12-16T09:16:35.134Z,-5.37
2022-12-16T09:19:20.276Z,-5.33
2022-12-16T09:22:06.847Z,-5.26
2022-12-16T09:24:52.355Z,-5.19
2022-12-16T09:27:37.837Z,-5.16
2022-12-16T09:30:24.343Z,-4.79
2022-12-16T09:33:09.500Z,-4.26
2022-12-16T09:35:54.556Z,-4.02
2022-12-16T09:38:42.308Z,-3.72
2022-12-16T09:41:44.848Z,-4.00
2022-12-16T09:44:40.351Z,-3.78
2022-12-16T09:47:34.827Z,-3.69
2022-12-16T09:50:20.582Z,-3.37
2022-12-16T09:53:12.732Z,-3.13
2022-12-16T09:56:01.017Z,-3.07
2022-12-16T09:58:53.100Z,-2.96
2022-12-16T10:01:40.481Z,-2.51
2022-12-16T10:04:26.698Z,-2.37
2022-12-16T10:07:16.341Z,-2.15
2022-12-16T10:10:12.925Z,-2.13
2022-12-16T10:13:05.709Z,-1.95
2022-12-16T10:15:57.759Z,-2.00
2022-12-16T10:19:05.289Z,-1.90
2022-12-16T10:21:56.032Z,-1.68
2022-12-16T10:24:53.451Z,-1.68
2022-12-16T10:27:49.148Z,-1.70
2022-12-16T10:30:35.560Z,-1.39
2022-12-16T10:33:21.499Z,-1.43
2022-12-16T10:36:09.884Z,-1.38
2022-12-16T10:38:59.584Z,-1.40
2022-12-16T10:41:47.869Z,-1.41
2022-12-16T10:44:42.091Z,-1.27
2022-12-16T10:47:30.633Z,-1.13
2022-12-16T10:50:17.740Z,-1.16
2022-12-16T10:53:09.452Z,-1.13
2022-12-16T10:56:08.201Z,-1.23
2022-12-16T10:59:04.308Z,-1.16
2022-12-16T11:01:55.383Z,-1.15
2022-12-16T11:04:50.198Z,-0.96
2022-12-16T11:07:49.014Z,-1.16
2022-12-16T11:10:50.395Z,-0.97
2022-12-16T11:13:44.760Z,-0.91
2022-12-16T11:16:50.514Z,-0.97
2022-12-16T11:19:39.335Z,-1.00
2022-12-16T11:22:33.127Z,-0.64
2022-12-16T11:25:32.338Z,-0.89
2022-12-16T11:28:23.952Z,-0.83
2022-12-16T11:31:12.291Z,-1.00
2022-12-16T11:33:58.640Z,-0.89
2022-12-16T11:36:45.740Z,-1.07
2022-12-16T11:39:35.651Z,-1.18
2022-12-16T11:42:22.965Z,-0.83
2022-12-16T11:45:12.692Z,-0.82
2022-12-16T11:48:04.334Z,-0.61
2022-12-16T11:50:54.000Z,-0.74
2022-12-16T11:53:51.058Z,-0.86
2022-12-16T11:56:42.897Z,-0.93
2022-12-16T11:59:37.870Z,-0.52
2022-12-16T12:02:33.056Z,-0.45
2022-12-16T12:05:18.455Z,-0.37
2022-12-16T12:08:24.117Z,-0.15
2022-12-16T12:11:19.723Z,0.12
2022-12-16T12:14:19.957Z,0.11
2022-12-16T12:17:17.396Z,0.20
2022-12-16T12:20:12.638Z,0.11
2022-12-16T12:22:59.272Z,0.24
2022-12-16T12:26:04.757Z,0.51
2022-12-16T12:29:07.235Z,1.32
2022-12-16T12:32:03.144Z,1.41
2022-12-16T12:35:01.253Z,1.10
2022-12-16T12:37:52.677Z,1.63
2022-12-16T12:40:52.338Z,1.41
2022-12-16T12:43:50.090Z,0.67
2022-12-16T12:46:47.424Z,0.67
2022-12-16T12:49:41.127Z,0.44
2022-12-16T12:52:34.425Z,0.48
2022-12-16T12:55:28.597Z,0.28
2022-12-16T12:58:15.018Z,0.14
2022-12-16T13:01:04.941Z,0.50
2022-12-16T13:03:52.133Z,0.54
2022-12-16T13:06:41.499Z,0.82
2022-12-16T13:09:46.742Z,0.78
2022-12-16T13:12:41.494Z,1.16
2022-12-16T13:15:27.564Z,2.19
2022-12-16T13:18:51.202Z,2.04
2022-12-16T13:22:05.242Z,2.94
2022-12-16T13:25:02.984Z,2.91
2022-12-16T13:28:04.601Z,3.21
2022-12-16T13:30:52.064Z,3.51
2022-12-16T13:33:42.218Z,2.56
2022-12-16T13:36:29.037Z,2.84
2022-12-16T13:39:19.519Z,2.86
2022-12-16T13:42:09.495Z,2.08
2022-12-16T13:45:18.199Z,1.92
2022-12-16T13:48:23.742Z,2.67
2022-12-16T13:51:18.154Z,2.38
2022-12-16T13:54:08.292Z,2.41
2022-12-16T13:57:00.259Z,2.09
2022-12-16T13:59:49.803Z,2.07
2022-12-16T14:02:44.188Z,1.79
2022-12-16T14:05:37.859Z,2.26
2022-12-16T14:08:25.044Z,1.64
2022-12-16T14:11:19.120Z,1.96
2022-12-16T14:14:11.689Z,1.55
2022-12-16T14:17:09.215Z,0.89
2022-12-16T14:20:05.495Z,0.79
2022-12-16T14:23:06.212Z,0.34
2022-12-16T14:25:51.249Z,-0.11
2022-12-16T14:28:45.549Z,-0.22
2022-12-16T14:31:35.882Z,-0.47
2022-12-16T14:34:21.764Z,-0.61
2022-12-16T14:37:07.331Z,-0.66
2022-12-16T14:39:57.481Z,-0.80
2022-12-16T14:42:44.400Z,-0.69
2022-12-16T14:45:41.721Z,-0.61
2022-12-16T14:48:49.895Z,-0.73
2022-12-16T14:51:42.170Z,-0.89
2022-12-16T14:54:45.141Z,-1.11
2022-12-16T14:57:33.667Z,-1.13
2022-12-16T15:00:30.718Z,-0.92
2022-12-16T15:03:20.812Z,-0.91
2022-12-16T15:06:11.721Z,-0.94
2022-12-16T15:09:09.009Z,-1.08
2022-12-16T15:11:56.074Z,-1.04
2022-12-16T15:14:46.477Z,-1.02
2022-12-16T15:17:39.756Z,-1.02
2022-12-16T15:20:35.714Z,-1.01
2022-12-16T15:23:22.502Z,-1.02
2022-12-16T15:26:12.771Z,-1.01
2022-12-16T15:29:00.934Z,-1.04
2022-12-16T15:31:50.488Z,-1.20
2022-12-16T15:34:41.680Z,-1.33
2022-12-16T15:37:34.857Z,-1.51
2022-12-16T15:40:22.168Z,-1.49
2022-12-16T15:43:10.790Z,-1.71
2022-12-16T15:45:55.806Z,-1.69
2022-12-16T15:48:44.697Z,-1.95
2022-12-16T15:51:42.687Z,-1.81
2022-12-16T15:54:35.471Z,-2.08
2022-12-16T15:57:38.854Z,-2.06
2022-12-16T16:00:40.386Z,-1.96
2022-12-16T16:03:37.873Z,-1.94
2022-12-16T16:06:30.838Z,-2.23
2022-12-16T16:09:24.628Z,-2.12
2022-12-16T16:12:09.737Z,-2.17
2022-12-16T16:14:56.409Z,-2.45
2022-12-16T16:17:42.272Z,-2.65
2022-12-16T16:20:32.509Z,-2.57
2022-12-16T16:23:17.869Z,-2.72
2022-12-16T16:26:04.264Z,-2.77
2022-12-16T16:28:49.512Z,-2.90
2022-12-16T16:31:35.785Z,-2.92
2022-12-16T16:34:21.032Z,-2.94
2022-12-16T16:37:10.706Z,-3.01
2022-12-16T16:39:56.124Z,-2.93
2022-12-16T16:42:41.829Z,-2.96
2022-12-16T16:45:27.741Z,-3.02
2022-12-16T16:48:24.441Z,-3.08
2022-12-16T16:51:09.330Z,-3.21
2022-12-16T16:53:54.658Z,-3.05
2022-12-16T16:56:40.052Z,-3.18
2022-12-16T16:59:27.269Z,-3.20
2022-12-16T17:02:13.010Z,-3.14
2022-12-16T17:05:08.215Z,-3.12
2022-12-16T17:08:08.368Z,-3.25
2022-12-16T17:10:53.828Z,-3.41
2022-12-16T17:13:39.312Z,-3.50
2022-12-16T17:16:25.122Z,-3.42
2022-12-16T17:19:10.572Z,-3.61
2022-12-16T17:21:56.312Z,-3.74
2022-12-16T17:24:46.978Z,-3.82
2022-12-16T17:27:35.023Z,-3.83
2022-12-16T17:30:20.728Z,-3.72
2022-12-16T17:33:06.115Z,-3.79
2022-12-16T17:35:51.136Z,-3.89
2022-12-16T17:38:37.644Z,-3.93
2022-12-16T17:41:23.177Z,-4.09
2022-12-16T17:44:11.180Z,-4.19
2022-12-16T17:46:56.475Z,-4.07
2022-12-16T17:49:41.705Z,-4.12
2022-12-16T17:52:26.960Z,-4.25
2022-12-16T17:55:13.652Z,-4.40
2022-12-16T17:57:59.115Z,-4.33
2022-12-16T18:00:58.804Z,-4.46
2022-12-16T18:03:44.674Z,-4.35
2022-12-16T18:06:29.987Z,-4.48
2022-12-16T18:09:15.477Z,-4.48
2022-12-16T18:12:02.337Z,-4.39
2022-12-16T18:14:47.787Z,-4.63
2022-12-16T18:17:33.317Z,-4.73
2022-12-16T18:20:18.981Z,-4.65
2022-12-16T18:23:04.379Z,-4.79
2022-12-16T18:25:59.203Z,-4.62
2022-12-16T18:28:45.487Z,-4.66
2022-12-16T18:31:30.659Z,-4.74
2022-12-16T18:34:16.273Z,-4.86
2022-12-16T18:37:01.360Z,-4.80
2022-12-16T18:39:46.709Z,-4.72
2022-12-16T18:42:32.290Z,-4.73
2022-12-16T18:45:19.099Z,-4.81
2022-12-16T18:48:04.155Z,-4.71
2022-12-16T18:50:49.334Z,-5.08
2022-12-16T18:53:34.878Z,-5.10
2022-12-16T18:56:21.393Z,-5.04
2022-12-16T18:59:02.956Z,-5.16
2022-12-16T19:01:49.271Z,-5.30
2022-12-16T19:04:34.851Z,-4.95
2022-12-16T19:07:20.118Z,-5.13
2022-12-16T19:10:05.302Z,-5.13
2022-12-16T19:13:05.615Z,-5.22
2022-12-16T19:15:59.014Z,-5.23
2022-12-16T19:18:52.568Z,-5.22
2022-12-16T19:21:52.401Z,-5.35
2022-12-16T19:28:25.207Z,-5.42
2022-12-16T19:31:18.280Z,-5.59
2022-12-16T19:34:11.879Z,-5.57
2022-12-16T19:36:58.450Z,-5.52
2022-12-16T19:39:47.050Z,-5.51
2022-12-16T19:42:36.952Z,-5.51
2022-12-16T19:45:25.878Z,-5.62
2022-12-16T19:48:27.028Z,-5.64
2022-12-16T19:51:24.648Z,-5.69
2022-12-16T19:54:52.308Z,-5.68
2022-12-16T19:57:39.704Z,-5.81
2022-12-16T20:00:36.730Z,-5.91
2022-12-16T20:03:29.282Z,-5.96
2022-12-16T20:06:29.771Z,-5.99
2022-12-16T20:09:24.102Z,-5.98
2022-12-16T20:12:17.583Z,-6.03
2022-12-16T20:15:04.014Z,-6.17
2022-12-16T20:17:52.212Z,-6.15
2022-12-16T20:20:42.104Z,-6.10
2022-12-16T20:23:32.156Z,-5.97
2022-12-16T20:26:23.098Z,-6.21
2022-12-16T20:29:23.519Z,-6.27
2022-12-16T20:32:13.916Z,-6.35
2022-12-16T20:35:06.697Z,-6.22
2022-12-16T20:38:01.383Z,-6.23
2022-12-16T20:41:06.847Z,-6.24
2022-12-16T20:43:56.131Z,-6.28
2022-12-16T20:46:45.809Z,-6.29
2022-12-16T20:49:34.346Z,-6.35
2022-12-16T20:52:23.699Z,-6.32
2022-12-16T20:55:17.773Z,-6.46
2022-12-16T20:58:19.227Z,-6.50
2022-12-16T21:01:16.175Z,-6.49
2022-12-16T21:04:04.323Z,-6.53
2022-12-16T21:06:50.155Z,-6.51
2022-12-16T21:09:55.187Z,-6.51
2022-12-16T21:13:07.015Z,-6.49
2022-12-16T21:16:06.846Z,-6.60
2022-12-16T21:19:15.322Z,-6.44
2022-12-16T21:22:00.722Z,-6.67
2022-12-16T21:24:45.968Z,-6.57
2022-12-16T21:27:31.328Z,-6.59
2022-12-16T21:30:16.645Z,-6.68
2022-12-16T21:33:03.503Z,-6.68
2022-12-16T21:35:49.016Z,-6.72
2022-12-16T21:38:34.055Z,-6.78
2022-12-16T21:41:19.535Z,-6.92
2022-12-16T21:44:04.458Z,-6.95
2022-12-16T21:46:49.952Z,-6.90
2022-12-16T21:49:44.844Z,-6.93
2022-12-16T21:52:30.013Z,-6.98
2022-12-16T21:55:15.196Z,-6.98
2022-12-16T21:58:01.392Z,-6.84
2022-12-16T22:00:47.562Z,-7.04
2022-12-16T22:03:32.652Z,-7.08
2022-12-16T22:06:19.319Z,-7.19
2022-12-16T22:09:04.648Z,-7.05
2022-12-16T22:11:50.056Z,-7.18
2022-12-16T22:14:35.077Z,-7.18
2022-12-16T22:17:20.541Z,-7.03
2022-12-16T22:20:05.826Z,-7.11
2022-12-16T22:22:52.223Z,-7.36
2022-12-16T22:25:33.864Z,-7.22
2022-12-16T22:28:19.010Z,-7.18
2022-12-16T22:31:15.598Z,-7.22
2022-12-16T22:34:01.438Z,-7.27
2022-12-16T22:36:46.691Z,-7.34
2022-12-16T22:39:32.896Z,-7.48
2022-12-16T22:42:18.315Z,-7.34
2022-12-16T22:45:03.653Z,-7.41
2022-12-16T22:47:49.675Z,-7.46
2022-12-16T22:50:43.714Z,-7.47
2022-12-16T22:53:31.499Z,-7.52
2022-12-16T22:56:17.869Z,-7.67
2022-12-16T22:59:03.117Z,-7.65
2022-12-16T23:01:48.649Z,-7.63
2022-12-16T23:04:33.862Z,-7.56
2022-12-16T23:07:19.193Z,-7.70
2022-12-16T23:10:04.515Z,-7.84
2022-12-16T23:12:51.278Z,-7.71
2022-12-16T23:15:37.307Z,-7.73
2022-12-16T23:18:22.369Z,-7.81
2022-12-16T23:21:08.352Z,-7.71
2022-12-16T23:23:56.949Z,-7.70
2022-12-16T23:26:42.588Z,-7.73
2022-12-16T23:29:28.882Z,-7.67
2022-12-16T23:32:14.268Z,-7.77
2022-12-16T23:34:59.655Z,-7.68
2022-12-16T23:37:44.935Z,-7.85
2022-12-16T23:40:31.044Z,-7.81
2022-12-16T23:43:16.498Z,-7.90
2022-12-16T23:46:02.871Z,-7.92
2022-12-16T23:48:48.171Z,-7.96
2022-12-16T23:51:33.233Z,-7.86
2022-12-16T23:54:18.516Z,-7.90
2022-12-16T23:57:03.922Z,-7.87
2022-12-16T23:59:49.546Z,-7.83
